This is the latest recevied weather packets stored in our database for station/object F5TND-3. If no packets are shown the sender has not sent any weather packets the latest 10 day(s).
| Time | Temp. | Humidity | Pressure | Rain* | Wind** | Luminosity | Snow |
|---|---|---|---|---|---|---|---|
| 1788118364 | 18.89° C | 93% | 1014.3 hPa | - | - | - | - |
| 1788117164 | 18.89° C | 89% | 1014 hPa | - | - | - | - |
| 1788115963 | 19.44° C | 85% | 1013.8 hPa | - | - | - | - |
| 1788114763 | 20° C | 77% | 1013.7 hPa | - | - | - | - |
| 1788113563 | 21.67° C | 70% | 1013.7 hPa | - | - | - | - |
| 1788112363 | 22.78° C | 64% | 1013.5 hPa | - | - | - | - |
| 1788111163 | 23.33° C | 63% | 1013.5 hPa | - | - | - | - |
| 1788109963 | 21.67° C | 75% | 1013.5 hPa | - | - | - | - |
| 1788108763 | 22.78° C | 70% | 1013.4 hPa | - | - | - | - |
| 1788107563 | 22.78° C | 72% | 1013.4 hPa | - | - | - | - |
| 1788106363 | 22.22° C | 73% | 1013.3 hPa | - | - | - | - |
| 1788105163 | 23.89° C | 66% | 1013.3 hPa | - | - | - | - |
| 1788103963 | 23.33° C | 70% | 1013.3 hPa | - | - | - | - |
| 1788102763 | 22.22° C | 75% | 1013.3 hPa | - | - | - | - |
| 1788101563 | 22.22° C | 75% | 1013.4 hPa | - | - | - | - |
| 1788100363 | 22.22° C | 75% | 1013.6 hPa | - | - | - | - |
| 1788099163 | 22.78° C | 72% | 1013.6 hPa | - | - | - | - |
| 1788096763 | 23.89° C | 59% | 1013.8 hPa | - | - | - | - |
| 1788095563 | 23.89° C | 58% | 1013.7 hPa | - | - | - | - |
| 1788094364 | 23.33° C | 60% | 1013.8 hPa | - | - | - | - |
| 1788093163 | 23.33° C | 59% | 1013.8 hPa | - | - | - | - |
| 1788091962 | 23.89° C | 54% | 1013.9 hPa | - | - | - | - |
| 1788090762 | 23.33° C | 57% | 1013.9 hPa | - | - | - | - |
| 1788089563 | 25° C | 52% | 1014 hPa | - | - | - | - |
| 1788088362 | 23.89° C | 58% | 1014 hPa | - | - | - | - |
* Rain since midnight (hover to see other rain measurements)
** Current wind speed in m/s (hover to see current wind gust speed)